Time;durP1;ratioP1;P1;durP2;ratioP2;P2;SDS_P1;SDS_P2;PMS_P1;PMS_P2;Temp;Humidity;BMP_temperature;BMP_pressure;BME280_temperature;BME280_humidity;BME280_pressure;Samples;Min_cycle;Max_cycle;Signal;HPM_P1;HPM_P2
2022/11/18 00:00:12;;;;;;;8.67;3.60;;;11.80;85.50;;;;;;5018221;28;20894;-70
2022/11/18 00:02:40;;;;;;;9.10;3.23;;;11.80;85.50;;;;;;5017636;28;20702;-69
2022/11/18 00:05:08;;;;;;;5.60;2.27;;;11.90;85.60;;;;;;5018792;28;20487;-69
2022/11/18 00:07:38;;;;;;;7.20;2.53;;;11.90;85.60;;;;;;5025449;28;20969;-69
2022/11/18 00:10:06;;;;;;;4.90;2.10;;;11.90;85.60;;;;;;5024452;28;20456;-70
2022/11/18 00:15:20;;;;;;;6.43;2.30;;;11.90;85.60;;;;;;5019201;28;21197;-69
2022/11/18 00:17:48;;;;;;;4.80;2.00;;;11.90;85.60;;;;;;5021768;28;20491;-69
2022/11/18 00:20:16;;;;;;;7.53;2.10;;;11.90;85.50;;;;;;5017912;28;20480;-69
2022/11/18 00:22:46;;;;;;;9.20;3.10;;;11.90;85.50;;;;;;5020903;28;20991;-69
2022/11/18 00:25:14;;;;;;;11.50;2.00;;;11.90;85.60;;;;;;5020695;28;20453;-69
2022/11/18 00:27:42;;;;;;;6.07;2.10;;;11.80;85.60;;;;;;5019443;28;21235;-69
2022/11/18 00:30:11;;;;;;;5.77;2.30;;;11.90;85.50;;;;;;5023356;28;20518;-69
2022/11/18 00:32:39;;;;;;;8.40;2.50;;;11.80;85.40;;;;;;5017495;28;21400;-69
2022/11/18 00:35:08;;;;;;;5.20;2.43;;;11.80;85.50;;;;;;5014955;28;20471;-70
2022/11/18 00:37:36;;;;;;;9.00;2.20;;;11.80;85.50;;;;;;5014875;28;20863;-69
2022/11/18 00:40:07;;;;;;;10.40;3.20;;;11.80;85.50;;;;;;5020917;28;20479;-69
2022/11/18 00:42:53;;;;;;;7.40;3.10;;;11.80;85.50;;;;;;5016492;28;20535;-69
2022/11/18 00:45:22;;;;;;;6.17;2.37;;;11.80;85.50;;;;;;5012130;28;20991;-69
2022/11/18 00:47:50;;;;;;;7.80;2.93;;;11.70;85.50;;;;;;5016576;28;20480;-69
2022/11/18 00:50:18;;;;;;;6.27;2.70;;;11.70;85.50;;;;;;5020991;28;20494;-70
2022/11/18 00:52:46;;;;;;;9.90;3.07;;;11.70;85.60;;;;;;5014072;28;20470;-70
2022/11/18 00:55:15;;;;;;;9.30;3.10;;;11.70;85.50;;;;;;5021250;28;20460;-69
2022/11/18 00:57:43;;;;;;;8.07;2.80;;;11.70;85.40;;;;;;5021086;28;20491;-69
2022/11/18 01:00:12;;;;;;;7.80;3.13;;;11.70;85.50;;;;;;5018153;28;21035;-69
2022/11/18 01:02:40;;;;;;;13.17;3.80;;;11.70;85.50;;;;;;5022673;28;20459;-69
2022/11/18 01:05:09;;;;;;;7.60;3.50;;;11.70;85.50;;;;;;5020202;28;20460;-69
2022/11/18 01:07:36;;;;;;;8.60;3.23;;;11.70;85.60;;;;;;5020202;28;20460;-70
2022/11/18 01:10:05;;;;;;;11.57;5.87;;;11.70;85.60;;;;;;5019919;28;20466;-70
2022/11/18 01:15:21;;;;;;;9.87;4.27;;;11.70;85.50;;;;;;5022391;28;21192;-69
2022/11/18 01:17:49;;;;;;;12.13;4.60;;;11.70;85.40;;;;;;5020530;28;20705;-71
2022/11/18 01:20:17;;;;;;;8.60;4.60;;;11.70;85.40;;;;;;5023654;28;20459;-70
2022/11/18 01:22:45;;;;;;;8.20;3.70;;;11.70;85.30;;;;;;5025212;28;21020;-70
2022/11/18 01:25:14;;;;;;;9.70;4.20;;;11.70;85.40;;;;;;5021144;28;20852;-70
2022/11/18 01:27:43;;;;;;;11.60;4.60;;;11.70;85.40;;;;;;5020633;28;20491;-70
2022/11/18 01:30:12;;;;;;;10.10;4.37;;;11.70;85.40;;;;;;5020380;28;20456;-70
2022/11/18 01:32:40;;;;;;;10.53;3.83;;;11.70;85.40;;;;;;5024273;28;20455;-70
2022/11/18 01:35:09;;;;;;;13.33;6.70;;;11.60;85.30;;;;;;5023828;28;20534;-70
2022/11/18 01:37:37;;;;;;;26.73;12.90;;;11.60;85.20;;;;;;5021873;28;20519;-70
2022/11/18 01:40:07;;;;;;;16.70;7.90;;;11.60;85.20;;;;;;5023896;28;20510;-70
2022/11/18 01:42:35;;;;;;;13.50;4.77;;;11.60;85.20;;;;;;5023430;28;20561;-70
2022/11/18 01:45:28;;;;;;;13.23;4.87;;;11.60;85.30;;;;;;5018640;28;20598;-70
2022/11/18 01:48:01;;;;;;;11.23;5.60;;;11.50;85.30;;;;;;5029873;28;20478;-70
2022/11/18 01:50:30;;;;;;;11.00;5.50;;;11.50;85.30;;;;;;5022609;28;20460;-69
2022/11/18 01:53:02;;;;;;;7.77;4.13;;;11.50;85.30;;;;;;5022563;28;20468;-70
2022/11/18 01:55:35;;;;;;;12.13;4.70;;;11.50;85.20;;;;;;5022674;28;20459;-69
2022/11/18 01:58:09;;;;;;;13.63;4.60;;;11.50;85.30;;;;;;5023633;28;20496;-70
2022/11/18 02:00:39;;;;;;;10.13;5.30;;;11.50;85.30;;;;;;5024757;28;20456;-69
2022/11/18 02:03:08;;;;;;;11.73;5.67;;;11.50;85.40;;;;;;5025426;28;20476;-69
2022/11/18 02:05:39;;;;;;;10.60;5.33;;;11.50;85.40;;;;;;5020545;28;20510;-70
2022/11/18 02:08:08;;;;;;;10.13;5.13;;;11.50;85.50;;;;;;5023312;28;20558;-70
2022/11/18 02:10:35;;;;;;;14.30;5.90;;;11.60;85.40;;;;;;5025550;28;20459;-70
2022/11/18 02:13:03;;;;;;;11.07;5.50;;;11.60;85.40;;;;;;5023321;28;20472;-70
2022/11/18 02:15:47;;;;;;;9.00;5.10;;;11.60;85.40;;;;;;5027011;28;20530;-70
2022/11/18 02:18:26;;;;;;;9.23;5.20;;;11.60;85.40;;;;;;5025331;28;20541;-69
2022/11/18 02:21:02;;;;;;;8.87;5.30;;;11.60;85.40;;;;;;5025082;28;20561;-70
2022/11/18 02:24:14;;;;;;;13.00;6.20;;;11.60;85.40;;;;;;5022797;28;20460;-70
2022/11/18 02:27:04;;;;;;;12.60;6.73;;;11.60;85.40;;;;;;5011931;28;20463;-70
2022/11/18 02:29:38;;;;;;;10.63;5.30;;;11.60;85.50;;;;;;5023066;28;20480;-70
2022/11/18 02:32:13;;;;;;;11.33;5.87;;;11.60;85.50;;;;;;5020764;28;20825;-70
2022/11/18 02:34:49;;;;;;;10.43;5.20;;;11.60;85.40;;;;;;5025943;28;20467;-70
2022/11/18 02:37:23;;;;;;;13.73;5.83;;;11.60;85.40;;;;;;5022333;28;20540;-69
2022/11/18 02:39:57;;;;;;;8.83;5.87;;;11.60;85.40;;;;;;5017672;28;20471;-70
2022/11/18 02:42:28;;;;;;;10.47;5.77;;;11.60;85.40;;;;;;5021804;28;20494;-70
2022/11/18 02:45:03;;;;;;;7.63;5.33;;;11.60;85.30;;;;;;5021612;28;20471;-70
2022/11/18 02:47:33;;;;;;;11.53;6.80;;;11.60;85.40;;;;;;5018859;28;20533;-69
2022/11/18 02:50:05;;;;;;;10.03;6.17;;;11.60;85.40;;;;;;5024992;28;20468;-70
2022/11/18 02:52:35;;;;;;;9.30;5.83;;;11.60;85.40;;;;;;5021717;28;20456;-70
2022/11/18 02:55:08;;;;;;;10.17;6.40;;;11.60;85.40;;;;;;5019971;28;20461;-70
2022/11/18 02:57:37;;;;;;;12.47;5.83;;;11.60;85.40;;;;;;5022741;28;20468;-70
2022/11/18 03:00:08;;;;;;;11.57;6.37;;;11.60;85.40;;;;;;5023883;28;20467;-70
2022/11/18 03:02:41;;;;;;;12.03;6.50;;;11.60;85.40;;;;;;5022049;28;20494;-70
2022/11/18 03:05:16;;;;;;;12.17;6.73;;;11.60;85.50;;;;;;5022151;28;20541;-69
2022/11/18 03:07:48;;;;;;;10.40;5.37;;;11.60;85.40;;;;;;5022819;28;20463;-70
2022/11/18 03:10:17;;;;;;;11.20;6.67;;;11.60;85.40;;;;;;5020255;28;20953;-70
2022/11/18 03:12:51;;;;;;;10.90;6.27;;;11.60;85.40;;;;;;5018277;28;20495;-70
2022/11/18 03:15:30;;;;;;;9.97;5.53;;;11.60;85.40;;;;;;5022149;28;20448;-70
2022/11/18 03:18:05;;;;;;;12.80;7.80;;;11.60;85.40;;;;;;5024459;28;20479;-70
2022/11/18 03:20:36;;;;;;;12.37;6.60;;;11.60;85.40;;;;;;5023973;28;20466;-70
2022/11/18 03:23:07;;;;;;;11.50;7.13;;;11.60;85.40;;;;;;5014791;28;21024;-70
2022/11/18 03:25:43;;;;;;;13.47;5.80;;;11.60;85.30;;;;;;5019943;28;20459;-70
2022/11/18 03:28:18;;;;;;;11.80;6.40;;;11.60;85.40;;;;;;5019641;28;20518;-70
2022/11/18 03:30:53;;;;;;;9.30;5.67;;;11.60;85.40;;;;;;5022848;28;21100;-70
2022/11/18 03:33:28;;;;;;;9.20;5.63;;;11.60;85.40;;;;;;5023931;28;20471;-70
2022/11/18 03:35:58;;;;;;;11.77;6.03;;;11.60;85.40;;;;;;5018915;28;20522;-69
2022/11/18 03:38:30;;;;;;;10.00;6.13;;;11.60;85.40;;;;;;5022272;28;21012;-70
2022/11/18 03:41:02;;;;;;;12.70;5.67;;;11.60;85.40;;;;;;5023832;28;20468;-70
2022/11/18 03:43:35;;;;;;;13.83;6.80;;;11.60;85.40;;;;;;5019552;28;21075;-68
2022/11/18 03:46:08;;;;;;;14.07;7.20;;;11.60;85.30;;;;;;5023842;28;20965;-69
2022/11/18 03:48:41;;;;;;;11.87;6.00;;;11.60;85.40;;;;;;5020053;28;20503;-68
2022/11/18 03:51:13;;;;;;;20.53;6.83;;;11.60;85.30;;;;;;5024726;28;20460;-70
2022/11/18 03:53:45;;;;;;;16.00;6.37;;;11.50;85.20;;;;;;5021265;28;21328;-70
2022/11/18 03:56:16;;;;;;;9.90;5.17;;;11.50;85.30;;;;;;5023593;28;20471;-70
2022/11/18 03:58:51;;;;;;;13.43;6.40;;;11.50;85.40;;;;;;5024467;28;20570;-70
2022/11/18 04:01:29;;;;;;;10.97;7.00;;;11.50;85.30;;;;;;5023312;28;20868;-69
2022/11/18 04:03:57;;;;;;;14.50;6.00;;;11.50;85.40;;;;;;5020391;28;20802;-70
2022/11/18 04:06:35;;;;;;;14.93;7.17;;;11.50;85.30;;;;;;5020260;28;20642;-70
2022/11/18 04:09:09;;;;;;;15.73;5.73;;;11.50;85.30;;;;;;5024138;28;20471;-70
2022/11/18 04:14:30;;;;;;;8.40;5.77;;;11.50;85.40;;;;;;5021448;28;20505;-70
2022/11/18 04:16:59;;;;;;;7.87;5.87;;;11.50;85.40;;;;;;5022080;28;20460;-70
2022/11/18 04:19:28;;;;;;;8.80;5.57;;;11.50;85.50;;;;;;5027165;28;20552;-70
2022/11/18 04:21:56;;;;;;;10.67;5.90;;;11.50;85.40;;;;;;5019679;28;20488;-70
2022/11/18 04:24:24;;;;;;;10.23;6.00;;;11.50;85.40;;;;;;5023093;28;21133;-70
2022/11/18 04:26:51;;;;;;;11.00;5.37;;;11.50;85.40;;;;;;5019796;28;20471;-70
2022/11/18 04:29:19;;;;;;;12.10;6.30;;;11.50;85.40;;;;;;5014284;28;20969;-70
2022/11/18 04:31:47;;;;;;;13.20;7.60;;;11.60;85.30;;;;;;5020024;28;20464;-70
2022/11/18 04:34:17;;;;;;;14.87;8.20;;;11.50;85.30;;;;;;5018763;28;20516;-70
2022/11/18 04:36:45;;;;;;;15.17;8.30;;;11.50;85.30;;;;;;5022347;28;20478;-69
2022/11/18 04:39:13;;;;;;;21.30;8.00;;;11.50;85.30;;;;;;5022957;28;20483;-70
2022/11/18 04:44:33;;;;;;;15.27;7.30;;;11.50;85.30;;;;;;5006848;28;20484;-70
2022/11/18 04:47:03;;;;;;;11.00;7.30;;;11.50;85.30;;;;;;5028944;28;20491;-70
2022/11/18 04:49:34;;;;;;;12.93;6.63;;;11.50;85.30;;;;;;5025582;28;20488;-70
2022/11/18 04:52:03;;;;;;;11.77;6.30;;;11.50;85.30;;;;;;5027392;28;21189;-70
2022/11/18 04:54:31;;;;;;;10.70;5.93;;;11.50;85.40;;;;;;5021759;28;20492;-70
2022/11/18 04:57:00;;;;;;;13.37;5.63;;;11.60;85.40;;;;;;5022445;28;20526;-70
2022/11/18 04:59:29;;;;;;;10.53;6.63;;;11.60;85.30;;;;;;5022983;28;21014;-70
2022/11/18 05:01:59;;;;;;;10.90;5.50;;;11.50;85.10;;;;;;5026954;28;20973;-70
2022/11/18 05:04:29;;;;;;;11.17;6.30;;;11.50;85.20;;;;;;5029820;28;20877;-69
2022/11/18 05:07:00;;;;;;;11.17;5.83;;;11.50;85.30;;;;;;5021173;28;20450;-69
2022/11/18 05:09:28;;;;;;;11.87;6.70;;;11.50;85.30;;;;;;5027687;28;20492;-68
2022/11/18 05:14:44;;;;;;;12.07;6.80;;;11.50;85.20;;;;;;5023955;28;20525;-69
2022/11/18 05:17:17;;;;;;;9.40;6.00;;;11.50;85.20;;;;;;5025755;28;20533;-70
2022/11/18 05:19:45;;;;;;;10.87;5.83;;;11.50;85.40;;;;;;5027863;28;20600;-69
2022/11/18 05:22:15;;;;;;;10.40;5.40;;;11.50;85.40;;;;;;5025396;28;20455;-68
2022/11/18 05:24:43;;;;;;;12.77;6.17;;;11.50;85.40;;;;;;5022916;28;20529;-70
2022/11/18 05:27:11;;;;;;;8.47;5.13;;;11.50;85.40;;;;;;5023761;28;20527;-70
2022/11/18 05:29:39;;;;;;;13.03;6.03;;;11.40;85.40;;;;;;5029644;28;20566;-70
2022/11/18 05:32:07;;;;;;;8.87;5.63;;;11.40;85.40;;;;;;5026816;28;20839;-68
2022/11/18 05:34:35;;;;;;;11.00;6.00;;;11.40;85.40;;;;;;5021081;28;21068;-69
2022/11/18 05:37:03;;;;;;;10.37;5.80;;;11.40;85.40;;;;;;5020703;28;20464;-69
2022/11/18 05:39:33;;;;;;;10.30;5.13;;;11.40;85.40;;;;;;5027328;28;20471;-69
2022/11/18 05:44:47;;;;;;;8.97;5.83;;;11.40;85.50;;;;;;5029450;28;20474;-68
2022/11/18 05:47:24;;;;;;;8.07;5.10;;;11.40;85.50;;;;;;5026878;28;20451;-69
2022/11/18 05:49:52;;;;;;;9.63;4.60;;;11.40;85.50;;;;;;5026229;28;21013;-69
2022/11/18 05:52:20;;;;;;;7.83;4.27;;;11.40;85.50;;;;;;5024084;28;20570;-69
2022/11/18 05:54:51;;;;;;;9.80;5.10;;;11.40;85.50;;;;;;5025693;28;20495;-69
2022/11/18 05:57:19;;;;;;;8.93;5.30;;;11.40;85.50;;;;;;5024423;28;20467;-69
2022/11/18 05:59:47;;;;;;;13.20;4.80;;;11.40;85.40;;;;;;5020192;28;20989;-70
2022/11/18 06:02:18;;;;;;;9.43;4.37;;;11.40;85.40;;;;;;5021055;28;20460;-69
2022/11/18 06:04:50;;;;;;;7.70;3.90;;;11.30;85.40;;;;;;5022441;28;20515;-68
2022/11/18 06:07:22;;;;;;;8.17;4.10;;;11.30;85.40;;;;;;5025811;28;20463;-68
2022/11/18 06:09:55;;;;;;;6.43;3.57;;;11.30;85.40;;;;;;5017276;28;20571;-71
2022/11/18 06:12:31;;;;;;;7.70;3.90;;;11.30;85.50;;;;;;5026075;28;20541;-70
2022/11/18 06:15:03;;;;;;;6.37;3.50;;;11.30;85.50;;;;;;5025777;28;20871;-71
2022/11/18 06:17:36;;;;;;;4.60;2.73;;;11.20;85.50;;;;;;5026367;28;20452;-70
2022/11/18 06:20:05;;;;;;;5.50;2.57;;;11.20;85.60;;;;;;5026198;28;20502;-69
2022/11/18 06:22:34;;;;;;;5.40;2.57;;;11.30;85.70;;;;;;5024794;28;20799;-70
2022/11/18 06:25:05;;;;;;;4.73;2.53;;;11.30;85.70;;;;;;5026886;28;20464;-68
2022/11/18 06:27:34;;;;;;;5.13;1.63;;;11.30;85.70;;;;;;5021954;28;21042;-70
2022/11/18 06:30:03;;;;;;;5.23;1.70;;;11.30;85.60;;;;;;5028842;28;20510;-68
2022/11/18 06:32:31;;;;;;;3.40;1.50;;;11.30;85.60;;;;;;5024120;28;20977;-68
2022/11/18 06:34:59;;;;;;;4.93;1.90;;;11.30;85.60;;;;;;5024780;28;20460;-70
2022/11/18 06:37:26;;;;;;;4.00;1.60;;;11.30;85.50;;;;;;5023309;28;20459;-68
2022/11/18 06:39:55;;;;;;;3.70;1.30;;;11.30;85.60;;;;;;5024164;28;20865;-69
2022/11/18 06:45:13;;;;;;;5.60;1.50;;;11.30;85.60;;;;;;5028449;28;20476;-68
2022/11/18 06:47:41;;;;;;;3.63;1.00;;;11.30;85.50;;;;;;5023746;28;20464;-68
2022/11/18 06:50:10;;;;;;;3.90;1.30;;;11.20;85.60;;;;;;5024983;28;20473;-69
2022/11/18 06:52:38;;;;;;;4.30;1.13;;;11.30;85.60;;;;;;5020595;28;20477;-68
2022/11/18 06:55:07;;;;;;;3.67;1.13;;;11.30;85.60;;;;;;5024879;28;20452;-68
2022/11/18 06:57:36;;;;;;;3.97;1.00;;;11.20;85.50;;;;;;5024923;28;20551;-68
2022/11/18 07:00:05;;;;;;;3.27;1.03;;;11.20;85.50;;;;;;5022996;28;20469;-68
2022/11/18 07:02:36;;;;;;;4.97;1.03;;;11.20;85.50;;;;;;5019368;28;20475;-68
2022/11/18 07:05:05;;;;;;;4.40;1.33;;;11.20;85.50;;;;;;5022143;28;20482;-69
2022/11/18 07:07:35;;;;;;;3.33;0.90;;;11.20;85.40;;;;;;5022376;28;20467;-69
2022/11/18 07:10:09;;;;;;;3.13;0.80;;;11.10;85.40;;;;;;5021464;28;20452;-69
2022/11/18 07:12:39;;;;;;;3.97;0.80;;;11.00;85.50;;;;;;5021452;28;20458;-69
2022/11/18 07:15:08;;;;;;;3.37;0.70;;;11.00;85.60;;;;;;5020329;28;20465;-69
2022/11/18 07:17:36;;;;;;;5.43;1.27;;;11.00;85.60;;;;;;5023267;28;20464;-70
2022/11/18 07:20:04;;;;;;;4.70;1.00;;;11.00;85.60;;;;;;5021849;28;20463;-69
2022/11/18 07:22:32;;;;;;;3.60;1.43;;;11.00;85.70;;;;;;5020197;28;20460;-69
2022/11/18 07:25:00;;;;;;;4.70;1.60;;;11.00;85.70;;;;;;5023424;28;20495;-68
2022/11/18 07:27:28;;;;;;;5.37;1.37;;;11.00;85.80;;;;;;5024913;28;20464;-69
2022/11/18 07:29:58;;;;;;;4.90;1.00;;;11.00;85.80;;;;;;5021771;28;20472;-70
2022/11/18 07:32:26;;;;;;;3.27;1.07;;;11.00;85.80;;;;;;5021948;28;20460;-69
2022/11/18 07:34:54;;;;;;;3.50;1.07;;;11.10;85.90;;;;;;5025354;28;20472;-69
2022/11/18 07:37:21;;;;;;;4.03;1.60;;;11.10;85.90;;;;;;5023560;28;20469;-69
2022/11/18 07:39:49;;;;;;;4.93;1.40;;;11.10;85.80;;;;;;5022644;28;20480;-69
2022/11/18 07:42:17;;;;;;;3.70;1.13;;;11.10;85.80;;;;;;5024987;28;20476;-69
2022/11/18 07:44:45;;;;;;;3.70;1.40;;;11.10;85.90;;;;;;5021280;28;20990;-69
2022/11/18 07:47:15;;;;;;;3.70;1.40;;;11.10;86.00;;;;;;5025197;28;20460;-69
2022/11/18 07:49:43;;;;;;;4.57;1.90;;;11.10;86.00;;;;;;5026872;28;20480;-69
2022/11/18 07:52:10;;;;;;;3.70;1.40;;;11.10;85.90;;;;;;5025022;28;20456;-69
2022/11/18 07:54:39;;;;;;;4.60;1.83;;;11.10;85.90;;;;;;5022600;28;20480;-69
2022/11/18 07:57:06;;;;;;;3.60;1.43;;;11.10;85.90;;;;;;5022891;28;20537;-69
2022/11/18 07:59:34;;;;;;;4.37;1.60;;;11.10;85.90;;;;;;5018836;28;21040;-69
2022/11/18 08:02:02;;;;;;;3.00;1.03;;;11.10;85.90;;;;;;5020488;28;20547;-69
2022/11/18 08:04:32;;;;;;;13.23;3.57;;;11.10;85.90;;;;;;5027648;28;20504;-69
2022/11/18 08:07:00;;;;;;;3.57;1.30;;;11.10;85.90;;;;;;5017559;28;20468;-69
2022/11/18 08:09:28;;;;;;;3.37;1.20;;;11.10;86.00;;;;;;5023711;28;20883;-69
2022/11/18 08:11:56;;;;;;;3.13;1.00;;;11.10;86.10;;;;;;5020871;28;20471;-69
2022/11/18 08:14:24;;;;;;;3.50;1.10;;;11.20;86.00;;;;;;5020499;28;20563;-69
2022/11/18 08:16:52;;;;;;;3.20;0.90;;;11.10;86.00;;;;;;5023275;28;20456;-70
2022/11/18 08:19:20;;;;;;;2.83;0.83;;;11.20;86.00;;;;;;5025557;28;20483;-69
2022/11/18 08:21:49;;;;;;;3.10;0.90;;;11.20;86.10;;;;;;5026168;28;20468;-69
2022/11/18 08:24:17;;;;;;;2.97;0.83;;;11.20;86.00;;;;;;5025868;28;20480;-70
2022/11/18 08:26:45;;;;;;;3.50;0.90;;;11.20;86.00;;;;;;5024051;28;20460;-69
2022/11/18 08:29:13;;;;;;;4.13;0.93;;;11.20;85.90;;;;;;5021380;28;21025;-69
2022/11/18 08:31:47;;;;;;;3.67;1.00;;;11.20;85.80;;;;;;5021078;28;20474;-70
2022/11/18 08:34:15;;;;;;;3.47;0.90;;;11.20;85.80;;;;;;5028251;28;20502;-69
2022/11/18 08:36:44;;;;;;;3.93;0.90;;;11.10;85.90;;;;;;5015488;28;20468;-70
2022/11/18 08:39:13;;;;;;;3.57;1.10;;;11.10;85.90;;;;;;5018374;28;20555;-69
2022/11/18 08:41:45;;;;;;;3.50;0.93;;;11.10;86.00;;;;;;5017971;28;20483;-69
2022/11/18 08:44:15;;;;;;;3.83;0.90;;;11.20;86.20;;;;;;5018980;28;20512;-69
2022/11/18 08:46:44;;;;;;;6.93;1.00;;;11.20;86.20;;;;;;5024364;28;20467;-69
2022/11/18 08:49:12;;;;;;;3.23;0.80;;;11.20;86.20;;;;;;5027758;28;20579;-69
2022/11/18 08:51:40;;;;;;;3.87;0.70;;;11.30;86.20;;;;;;5020777;28;20490;-69
2022/11/18 08:54:08;;;;;;;3.77;0.90;;;11.30;86.10;;;;;;5023687;28;21019;-69
2022/11/18 08:56:39;;;;;;;3.00;0.80;;;11.30;86.10;;;;;;5025783;28;20827;-69
2022/11/18 08:59:07;;;;;;;2.90;0.80;;;11.30;86.10;;;;;;5021137;28;20499;-69
2022/11/18 09:01:36;;;;;;;2.80;0.60;;;11.40;86.10;;;;;;5023170;28;20467;-69
2022/11/18 09:04:04;;;;;;;3.50;1.00;;;11.40;86.00;;;;;;5019329;28;20523;-69
2022/11/18 09:06:33;;;;;;;2.70;0.70;;;11.40;86.00;;;;;;5023292;28;20468;-69
2022/11/18 09:09:01;;;;;;;3.20;0.83;;;11.40;86.00;;;;;;5028401;28;20943;-69
2022/11/18 09:11:34;;;;;;;2.73;0.70;;;11.40;86.00;;;;;;5030107;28;20488;-69
2022/11/18 09:14:03;;;;;;;5.00;1.57;;;11.40;86.00;;;;;;5033692;28;20476;-69
2022/11/18 09:16:51;;;;;;;4.10;1.00;;;11.40;85.90;;;;;;5023039;28;20539;-69
2022/11/18 09:19:19;;;;;;;3.03;0.93;;;11.30;85.90;;;;;;5029502;28;20486;-69
2022/11/18 09:22:08;;;;;;;3.20;0.93;;;11.30;85.90;;;;;;5032342;28;20969;-69
2022/11/18 09:24:37;;;;;;;3.83;1.40;;;11.30;85.90;;;;;;5033976;28;20488;-69
2022/11/18 09:27:07;;;;;;;3.10;1.17;;;11.20;85.90;;;;;;5032597;28;20461;-69
2022/11/18 09:29:56;;;;;;;3.17;1.13;;;11.20;86.00;;;;;;5028916;28;20465;-69
2022/11/18 09:32:24;;;;;;;3.70;1.20;;;11.20;86.10;;;;;;5037329;28;20460;-69
2022/11/18 09:34:52;;;;;;;3.53;1.27;;;11.20;86.00;;;;;;5033640;28;20459;-69
2022/11/18 09:37:21;;;;;;;3.80;1.50;;;11.20;86.10;;;;;;5037267;28;20521;-69
2022/11/18 09:39:49;;;;;;;4.60;1.23;;;11.20;86.00;;;;;;5036520;28;20515;-69
2022/11/18 09:42:31;;;;;;;3.30;1.30;;;11.20;86.00;;;;;;5025525;28;20499;-69
2022/11/18 09:45:11;;;;;;;5.23;1.77;;;11.20;86.10;;;;;;5031389;28;20479;-70
2022/11/18 09:47:43;;;;;;;3.70;1.30;;;11.20;86.10;;;;;;5028432;28;20515;-69
2022/11/18 09:50:14;;;;;;;3.80;1.10;;;11.20;86.10;;;;;;5026550;28;20950;-69
2022/11/18 09:53:11;;;;;;;3.37;1.33;;;11.20;86.10;;;;;;5027264;28;20560;-69
2022/11/18 09:55:40;;;;;;;3.57;1.37;;;11.20;86.10;;;;;;5024694;28;20468;-69
2022/11/18 09:58:18;;;;;;;4.53;1.50;;;11.20;86.10;;;;;;5020120;28;20488;-69
2022/11/18 10:00:47;;;;;;;3.10;0.97;;;11.20;86.10;;;;;;5023176;28;20760;-69
2022/11/18 10:03:22;;;;;;;3.93;1.53;;;11.20;86.10;;;;;;5023900;28;20468;-69
2022/11/18 10:05:56;;;;;;;4.53;1.53;;;11.20;86.10;;;;;;5022743;28;20491;-69
2022/11/18 10:08:28;;;;;;;14.53;1.97;;;11.20;86.00;;;;;;5024191;28;20480;-69
2022/11/18 10:11:03;;;;;;;5.37;1.60;;;11.20;86.10;;;;;;5017859;28;20457;-69
2022/11/18 10:13:45;;;;;;;3.50;1.00;;;11.20;86.30;;;;;;5022839;28;20467;-68
2022/11/18 10:16:28;;;;;;;6.80;1.30;;;11.20;86.20;;;;;;5025636;28;20452;-69
2022/11/18 10:19:05;;;;;;;3.77;1.50;;;11.20;86.30;;;;;;5021183;28;20484;-69
2022/11/18 10:21:45;;;;;;;4.57;1.40;;;11.30;86.20;;;;;;5025203;28;20470;-69
2022/11/18 10:24:18;;;;;;;3.70;1.07;;;11.30;86.20;;;;;;5024601;28;20459;-69
2022/11/18 10:26:47;;;;;;;3.73;1.23;;;11.30;86.30;;;;;;5028058;28;20493;-69
2022/11/18 10:29:15;;;;;;;3.60;1.23;;;11.30;86.20;;;;;;5020177;28;20489;-69
2022/11/18 10:31:58;;;;;;;4.80;1.37;;;11.30;86.10;;;;;;5025821;28;20468;-69
2022/11/18 10:34:31;;;;;;;5.40;1.10;;;11.30;86.10;;;;;;5022043;28;20459;-69
2022/11/18 10:37:00;;;;;;;4.00;1.10;;;11.30;86.20;;;;;;5025352;28;20458;-70
2022/11/18 10:39:29;;;;;;;3.17;1.10;;;11.30;86.20;;;;;;5020019;28;20487;-69
2022/11/18 10:42:00;;;;;;;3.27;0.90;;;11.30;86.00;;;;;;5024078;28;21035;-69
2022/11/18 10:44:35;;;;;;;4.57;1.03;;;11.30;86.10;;;;;;5021841;28;20471;-69
2022/11/18 10:47:23;;;;;;;4.30;1.27;;;11.30;86.10;;;;;;5020809;28;20538;-69
2022/11/18 10:49:52;;;;;;;3.27;0.97;;;11.30;86.10;;;;;;5023494;28;20487;-70
2022/11/18 10:52:21;;;;;;;6.20;0.90;;;11.40;86.00;;;;;;5020313;28;20585;-70
2022/11/18 10:55:19;;;;;;;2.87;0.77;;;11.40;86.00;;;;;;5021187;28;20464;-70
2022/11/18 10:57:50;;;;;;;3.20;0.87;;;11.40;86.10;;;;;;5021964;28;20463;-69
2022/11/18 11:00:49;;;;;;;3.63;1.27;;;11.40;86.10;;;;;;5025827;28;20490;-70
2022/11/18 11:03:25;;;;;;;3.20;0.80;;;11.50;86.00;;;;;;5024817;28;20464;-69
2022/11/18 11:06:15;;;;;;;2.87;0.60;;;11.50;85.80;;;;;;5023704;28;20483;-69
2022/11/18 11:08:49;;;;;;;3.57;1.03;;;11.50;85.70;;;;;;5019717;28;20480;-70
2022/11/18 11:11:25;;;;;;;2.90;0.90;;;11.50;85.70;;;;;;5024847;28;20469;-69
2022/11/18 11:14:00;;;;;;;3.47;0.90;;;11.40;85.70;;;;;;5025674;28;20830;-70
2022/11/18 11:16:29;;;;;;;2.90;0.80;;;11.40;85.70;;;;;;5021183;28;20467;-69
2022/11/18 11:19:02;;;;;;;3.10;0.83;;;11.40;85.70;;;;;;5014945;28;21023;-69
2022/11/18 11:21:31;;;;;;;2.90;0.63;;;11.40;85.70;;;;;;5025254;28;20455;-69
2022/11/18 11:23:59;;;;;;;3.00;0.87;;;11.50;85.60;;;;;;5028303;28;20478;-68
2022/11/18 11:26:34;;;;;;;6.37;1.00;;;11.50;85.60;;;;;;5027423;28;20542;-69
2022/11/18 11:29:37;;;;;;;2.97;0.70;;;11.50;85.60;;;;;;5025852;28;20539;-69
2022/11/18 11:32:14;;;;;;;5.53;0.80;;;11.50;85.60;;;;;;5020890;28;20459;-69
2022/11/18 11:34:50;;;;;;;3.20;1.10;;;11.50;85.50;;;;;;5018840;28;20490;-70
2022/11/18 11:37:29;;;;;;;3.73;0.73;;;11.50;85.40;;;;;;5021832;28;20460;-69
2022/11/18 11:40:20;;;;;;;5.83;1.30;;;11.60;85.60;;;;;;5022550;28;20538;-69
2022/11/18 11:43:01;;;;;;;4.30;1.33;;;11.60;85.60;;;;;;5015755;28;20513;-69
2022/11/18 11:45:36;;;;;;;4.33;1.10;;;11.60;85.60;;;;;;5017354;28;21012;-69
2022/11/18 11:48:30;;;;;;;3.40;1.07;;;11.60;85.60;;;;;;5017792;28;20587;-69
2022/11/18 11:51:05;;;;;;;3.60;0.90;;;11.70;85.50;;;;;;5018832;28;20466;-70
2022/11/18 11:54:08;;;;;;;3.57;0.90;;;11.70;85.50;;;;;;5015995;28;20546;-69
2022/11/18 11:56:42;;;;;;;3.43;0.67;;;11.70;85.60;;;;;;5020141;28;20459;-70
2022/11/18 11:59:21;;;;;;;3.40;1.00;;;11.70;85.60;;;;;;5020608;28;20495;-71
2022/11/18 12:01:59;;;;;;;2.90;0.70;;;11.70;85.60;;;;;;5021221;28;20548;-70
2022/11/18 12:04:37;;;;;;;2.63;0.73;;;11.80;85.50;;;;;;5024046;28;21038;-70
2022/11/18 12:07:13;;;;;;;2.97;0.80;;;11.80;85.50;;;;;;5021223;28;20565;-70
2022/11/18 12:10:01;;;;;;;2.90;0.80;;;11.80;85.50;;;;;;5020678;28;20472;-71
2022/11/18 12:12:37;;;;;;;2.80;0.83;;;11.80;85.50;;;;;;5022861;28;20464;-70
2022/11/18 12:15:24;;;;;;;7.10;1.17;;;11.80;85.40;;;;;;5024308;28;21290;-71
2022/11/18 12:18:00;;;;;;;3.33;0.90;;;11.80;85.40;;;;;;5021015;28;20525;-70
2022/11/18 12:20:41;;;;;;;4.17;1.40;;;11.80;85.50;;;;;;5018110;28;20525;-70
2022/11/18 12:23:15;;;;;;;4.30;1.30;;;11.80;85.50;;;;;;5018259;28;20493;-69
2022/11/18 12:25:58;;;;;;;3.47;1.00;;;11.80;85.40;;;;;;5024657;28;20458;-69
2022/11/18 12:28:30;;;;;;;3.20;0.93;;;11.80;85.40;;;;;;5021673;28;20503;-69
2022/11/18 12:31:34;;;;;;;2.90;0.90;;;11.70;85.30;;;;;;5019020;28;20475;-70
2022/11/18 12:34:21;;;;;;;4.10;1.27;;;11.70;85.30;;;;;;5018517;28;21252;-70
2022/11/18 12:36:49;;;;;;;3.73;1.40;;;11.70;85.30;;;;;;5008997;28;20518;-69
2022/11/18 12:39:49;;;;;;;4.70;1.27;;;11.60;85.40;;;;;;5022064;28;20488;-70
2022/11/18 12:45:57;;;;;;;3.80;1.43;;;11.60;85.40;;;;;;5018259;28;21010;-70
2022/11/18 12:48:31;;;;;;;3.80;1.30;;;11.60;85.40;;;;;;5019965;28;20480;-69
2022/11/18 12:51:01;;;;;;;3.73;1.53;;;11.60;85.50;;;;;;5019271;28;20445;-70
2022/11/18 12:53:37;;;;;;;4.80;1.60;;;11.60;85.50;;;;;;5024027;28;20460;-70
2022/11/18 12:56:22;;;;;;;3.90;1.70;;;11.60;85.60;;;;;;5025228;28;20467;-70
2022/11/18 12:58:52;;;;;;;4.10;1.67;;;11.70;85.60;;;;;;5017910;28;20480;-70
2022/11/18 13:01:23;;;;;;;4.50;1.80;;;11.70;85.60;;;;;;5022209;28;20451;-69
2022/11/18 13:03:52;;;;;;;4.27;2.00;;;11.70;85.60;;;;;;5021401;28;20543;-70
2022/11/18 13:06:24;;;;;;;4.60;2.03;;;11.70;85.50;;;;;;5029836;28;21007;-69
2022/11/18 13:08:57;;;;;;;7.60;2.27;;;11.70;85.60;;;;;;5025305;28;21030;-69
2022/11/18 13:11:46;;;;;;;4.60;2.17;;;11.70;85.50;;;;;;5024932;28;20459;-70
2022/11/18 13:19:56;;;;;;;6.83;2.77;;;11.70;85.40;;;;;;5029717;28;20515;-70
2022/11/18 13:25:31;;;;;;;5.07;2.87;;;11.60;85.60;;;;;;5020130;28;20539;-69
2022/11/18 13:28:07;;;;;;;5.77;2.90;;;11.70;85.70;;;;;;5018835;28;20488;-69
2022/11/18 13:30:44;;;;;;;4.93;2.70;;;11.70;85.60;;;;;;5022047;28;20471;-70
2022/11/18 13:33:12;;;;;;;8.63;3.40;;;11.70;85.60;;;;;;5017196;28;20467;-70
2022/11/18 13:35:40;;;;;;;7.73;3.53;;;11.70;85.60;;;;;;5025186;28;20968;-70
2022/11/18 13:38:20;;;;;;;6.10;3.40;;;11.70;85.60;;;;;;5023899;28;20487;-70
2022/11/18 13:41:06;;;;;;;6.53;3.33;;;11.70;85.70;;;;;;5023080;28;20458;-70